Time;durP1;ratioP1;P1;durP2;ratioP2;P2;SDS_P1;SDS_P2;PMS_P1;PMS_P2;Temp;Humidity;BMP_temperature;BMP_pressure;BME280_temperature;BME280_humidity;BME280_pressure;Samples;Min_cycle;Max_cycle;Signal;HPM_P1;HPM_P2
2021/05/17 00:01:31;;;;;;;;;;;8.70;1.00;;;;;;5049873;28;20358;-67
2021/05/17 00:03:59;;;;;;;;;;;8.70;1.00;;;;;;5050210;28;19916;-66
2021/05/17 00:06:24;;;;;;;;;;;8.70;1.00;;;;;;5063413;28;20362;-67
2021/05/17 00:08:52;;;;;;;;;;;8.80;1.00;;;;;;5069371;28;19919;-66
2021/05/17 00:11:18;;;;;;;;;;;8.80;1.00;;;;;;5068321;28;19997;-67
2021/05/17 00:13:44;;;;;;;;;;;8.90;1.00;;;;;;5052102;28;19954;-68
2021/05/17 00:16:09;;;;;;;;;;;8.90;1.00;;;;;;5041226;28;19909;-66
2021/05/17 00:18:35;;;;;;;;;;;8.90;1.00;;;;;;5038147;28;19929;-68
2021/05/17 00:21:01;;;;;;;;;;;9.00;1.00;;;;;;5048534;28;20456;-65
2021/05/17 00:23:27;;;;;;;;;;;9.00;1.00;;;;;;5049175;28;19912;-68
2021/05/17 00:25:52;;;;;;;;;;;9.00;1.00;;;;;;5049778;28;19917;-67
2021/05/17 00:28:18;;;;;;;;;;;9.00;1.00;;;;;;5049392;28;19959;-66
2021/05/17 00:30:44;;;;;;;;;;;9.10;1.00;;;;;;5048559;28;19917;-67
2021/05/17 00:33:09;;;;;;;;;;;9.10;1.00;;;;;;5048585;28;19925;-68
2021/05/17 00:35:35;;;;;;;;;;;9.20;1.00;;;;;;5049612;28;19982;-67
2021/05/17 00:38:00;;;;;;;;;;;9.20;1.00;;;;;;5048644;28;19920;-67
2021/05/17 00:40:26;;;;;;;;;;;9.20;1.00;;;;;;5048212;28;20285;-67
2021/05/17 00:42:53;;;;;;;;;;;9.30;1.00;;;;;;5049835;28;19951;-68
2021/05/17 00:45:19;;;;;;;;;;;9.30;1.00;;;;;;5048720;28;19916;-66
2021/05/17 00:47:46;;;;;;;;;;;9.30;1.00;;;;;;5048688;28;19940;-68
2021/05/17 00:50:13;;;;;;;;;;;9.30;1.00;;;;;;5048246;28;19916;-68
2021/05/17 00:52:39;;;;;;;;;;;9.30;1.00;;;;;;5047710;28;20449;-67
2021/05/17 00:55:05;;;;;;;;;;;9.30;1.00;;;;;;5048391;28;19958;-65
2021/05/17 00:57:31;;;;;;;;;;;9.20;1.00;;;;;;5049570;28;19908;-65
2021/05/17 00:59:58;;;;;;;;;;;9.20;1.00;;;;;;5047734;28;20484;-65
2021/05/17 01:02:23;;;;;;;;;;;9.10;1.00;;;;;;5045731;28;20399;-66
2021/05/17 01:04:49;;;;;;;;;;;9.00;1.00;;;;;;5049048;28;19909;-66
2021/05/17 01:07:18;;;;;;;;;;;9.00;1.00;;;;;;5068166;28;19920;-66
2021/05/17 01:09:44;;;;;;;;;;;8.90;1.00;;;;;;5067104;28;20237;-68
2021/05/17 01:12:10;;;;;;;;;;;8.90;1.00;;;;;;5068479;28;19912;-65
2021/05/17 01:14:36;;;;;;;;;;;8.90;1.00;;;;;;5065972;28;19916;-67
2021/05/17 01:17:02;;;;;;;;;;;8.80;1.00;;;;;;5036320;28;19917;-67
2021/05/17 01:19:32;;;;;;;;;;;8.80;1.00;;;;;;5042148;28;19913;-67
2021/05/17 01:22:08;;;;;;;;;;;8.80;1.00;;;;;;5048394;28;20488;-67
2021/05/17 01:24:33;;;;;;;;;;;8.70;1.00;;;;;;5048954;28;20448;-66
2021/05/17 01:26:59;;;;;;;;;;;8.70;1.00;;;;;;5048459;28;19916;-66
2021/05/17 01:29:25;;;;;;;;;;;8.70;1.00;;;;;;5046604;28;20387;-68
2021/05/17 01:31:51;;;;;;;;;;;8.60;1.00;;;;;;5048347;28;19958;-68
2021/05/17 01:34:16;;;;;;;;;;;8.60;1.00;;;;;;5047484;28;19913;-67
2021/05/17 01:36:43;;;;;;;;;;;8.60;1.00;;;;;;5051983;28;19920;-68
2021/05/17 01:39:10;;;;;;;;;;;8.60;1.00;;;;;;5046603;28;19932;-64
2021/05/17 01:41:37;;;;;;;;;;;8.70;1.00;;;;;;5047700;28;19935;-64
2021/05/17 01:44:04;;;;;;;;;;;8.70;1.00;;;;;;5047883;28;19912;-68
2021/05/17 01:46:31;;;;;;;;;;;8.70;1.00;;;;;;5047335;28;19979;-67
2021/05/17 01:48:57;;;;;;;;;;;8.70;1.00;;;;;;5046951;28;20008;-67
2021/05/17 01:51:24;;;;;;;;;;;8.80;1.00;;;;;;5047116;28;19913;-67
2021/05/17 01:53:50;;;;;;;;;;;8.70;1.00;;;;;;5047670;28;19919;-68
2021/05/17 01:56:16;;;;;;;;;;;8.70;1.00;;;;;;5047361;28;19917;-68
2021/05/17 01:58:42;;;;;;;;;;;8.70;1.00;;;;;;5048120;28;19917;-67
2021/05/17 02:01:09;;;;;;;;;;;8.70;1.00;;;;;;5046085;28;20335;-67
2021/05/17 02:03:35;;;;;;;;;;;8.60;1.00;;;;;;5028969;28;19913;-67
2021/05/17 02:06:01;;;;;;;;;;;8.60;1.00;;;;;;5047587;28;20024;-66
2021/05/17 02:08:27;;;;;;;;;;;8.60;1.00;;;;;;5048109;28;20004;-66
2021/05/17 02:10:52;;;;;;;;;;;8.60;1.00;;;;;;5046732;28;20356;-67
2021/05/17 02:13:22;;;;;;;;;;;8.50;1.00;;;;;;5047165;28;19920;-66
2021/05/17 02:15:49;;;;;;;;;;;8.50;1.00;;;;;;5047426;28;19909;-69
2021/05/17 02:18:14;;;;;;;;;;;8.60;1.00;;;;;;5047641;28;19993;-66
2021/05/17 02:20:42;;;;;;;;;;;8.60;1.00;;;;;;5046709;28;20311;-66
2021/05/17 02:23:09;;;;;;;;;;;8.70;1.00;;;;;;5046635;28;19940;-68
2021/05/17 02:25:36;;;;;;;;;;;8.70;1.00;;;;;;5047133;28;19913;-69
2021/05/17 02:28:01;;;;;;;;;;;8.70;1.00;;;;;;5047417;28;19909;-66
2021/05/17 02:30:27;;;;;;;;;;;8.60;1.00;;;;;;5046066;28;19909;-67
2021/05/17 02:32:53;;;;;;;;;;;8.60;1.00;;;;;;5047217;28;19913;-66
2021/05/17 02:35:19;;;;;;;;;;;8.50;1.00;;;;;;5046824;28;20250;-66
2021/05/17 02:37:45;;;;;;;;;;;8.50;1.00;;;;;;5047258;28;20322;-66
2021/05/17 02:40:11;;;;;;;;;;;8.50;1.00;;;;;;5046330;28;19954;-67
2021/05/17 02:42:37;;;;;;;;;;;8.40;1.00;;;;;;5047562;28;19917;-66
2021/05/17 02:45:04;;;;;;;;;;;8.30;1.00;;;;;;5046686;28;19939;-66
2021/05/17 02:47:36;;;;;;;;;;;8.20;1.00;;;;;;5046893;28;20030;-66
2021/05/17 02:50:06;;;;;;;;;;;8.20;1.00;;;;;;5026698;28;19913;-66
2021/05/17 02:52:32;;;;;;;;;;;8.20;1.00;;;;;;5040536;28;19928;-67
2021/05/17 02:55:03;;;;;;;;;;;8.30;1.00;;;;;;5047419;28;19952;-68
2021/05/17 02:57:55;;;;;;;;;;;8.30;1.00;;;;;;5047150;28;19955;-65
2021/05/17 03:00:21;;;;;;;;;;;8.20;1.00;;;;;;5042624;28;20277;-66
2021/05/17 03:02:53;;;;;;;;;;;8.20;1.00;;;;;;5050489;28;19991;-66
2021/05/17 03:05:19;;;;;;;;;;;8.30;1.00;;;;;;5047144;28;19949;-68
2021/05/17 03:07:47;;;;;;;;;;;8.40;1.00;;;;;;5034288;28;19971;-67
2021/05/17 03:10:13;;;;;;;;;;;8.40;1.00;;;;;;5031546;28;20266;-66
2021/05/17 03:12:39;;;;;;;;;;;8.40;1.00;;;;;;5059608;28;19916;-66
2021/05/17 03:15:05;;;;;;;;;;;8.50;1.00;;;;;;5053826;28;19909;-64
2021/05/17 03:17:31;;;;;;;;;;;8.50;1.00;;;;;;5050069;28;19917;-65
2021/05/17 03:19:56;;;;;;;;;;;8.60;1.00;;;;;;5050183;28;19952;-68
2021/05/17 03:22:23;;;;;;;;;;;8.60;1.00;;;;;;5050582;28;19916;-65
2021/05/17 03:24:51;;;;;;;;;;;8.60;1.00;;;;;;5049373;28;20460;-67
2021/05/17 03:27:21;;;;;;;;;;;8.50;1.00;;;;;;5050921;28;19908;-65
2021/05/17 03:29:47;;;;;;;;;;;8.50;1.00;;;;;;5049044;28;19909;-66
2021/05/17 03:32:12;;;;;;;;;;;8.50;1.00;;;;;;5050503;28;20349;-65
2021/05/17 03:34:38;;;;;;;;;;;8.40;1.00;;;;;;5049760;28;19912;-66
2021/05/17 03:37:04;;;;;;;;;;;8.40;1.00;;;;;;5050366;28;19967;-66
2021/05/17 03:39:29;;;;;;;;;;;8.40;1.00;;;;;;5048474;28;19913;-67
2021/05/17 03:41:55;;;;;;;;;;;8.50;1.00;;;;;;5050854;28;19916;-65
2021/05/17 03:44:20;;;;;;;;;;;8.60;1.00;;;;;;5050125;28;20275;-66
2021/05/17 03:46:46;;;;;;;;;;;8.60;1.00;;;;;;5050137;28;19909;-68
2021/05/17 03:49:11;;;;;;;;;;;8.60;1.00;;;;;;5049029;28;19913;-68
2021/05/17 03:51:37;;;;;;;;;;;8.60;1.00;;;;;;5043973;28;19913;-66
2021/05/17 03:54:02;;;;;;;;;;;8.50;1.00;;;;;;5031037;28;20035;-66
2021/05/17 03:56:28;;;;;;;;;;;8.50;1.00;;;;;;5049388;28;19991;-66
2021/05/17 03:58:53;;;;;;;;;;;8.60;1.00;;;;;;5049969;28;19909;-66
2021/05/17 04:01:19;;;;;;;;;;;8.70;1.00;;;;;;5038147;28;20471;-66
2021/05/17 04:03:45;;;;;;;;;;;8.70;1.00;;;;;;5048595;28;19963;-66
2021/05/17 04:06:17;;;;;;;;;;;8.70;1.00;;;;;;5049731;28;20410;-66
2021/05/17 04:13:53;;;;;;;;;;;8.90;1.00;;;;;;5065030;28;20785;-67
2021/05/17 04:16:19;;;;;;;;;;;8.90;1.00;;;;;;5049580;28;19940;-65
2021/05/17 04:18:46;;;;;;;;;;;9.00;1.00;;;;;;5048627;28;19966;-66
2021/05/17 04:21:11;;;;;;;;;;;9.10;1.00;;;;;;5038047;28;19921;-67
2021/05/17 04:23:37;;;;;;;;;;;9.00;1.00;;;;;;5031766;28;19919;-66
2021/05/17 04:26:03;;;;;;;;;;;9.10;1.00;;;;;;5047120;28;19995;-67
2021/05/17 04:28:28;;;;;;;;;;;9.10;1.00;;;;;;5049506;28;19944;-66
2021/05/17 04:30:54;;;;;;;;;;;9.10;1.00;;;;;;5047629;28;20350;-65
2021/05/17 04:33:20;;;;;;;;;;;9.10;1.00;;;;;;5047753;28;19917;-68
2021/05/17 04:35:45;;;;;;;;;;;9.20;1.00;;;;;;5045865;28;19908;-65
2021/05/17 04:38:10;;;;;;;;;;;9.20;1.00;;;;;;5047752;28;19991;-65
2021/05/17 04:40:36;;;;;;;;;;;9.30;1.00;;;;;;5048142;28;20028;-64
2021/05/17 04:43:01;;;;;;;;;;;9.40;1.00;;;;;;5048400;28;19913;-67
2021/05/17 04:45:27;;;;;;;;;;;9.50;1.00;;;;;;5047046;28;19947;-66
2021/05/17 04:47:53;;;;;;;;;;;9.70;1.00;;;;;;5047909;28;19994;-68
2021/05/17 04:50:19;;;;;;;;;;;9.80;1.00;;;;;;5048009;28;19913;-67
2021/05/17 04:52:44;;;;;;;;;;;9.90;99.90;;;;;;5047927;28;19924;-67
2021/05/17 04:55:10;;;;;;;;;;;10.10;99.90;;;;;;5048456;28;19981;-67
2021/05/17 04:57:36;;;;;;;;;;;10.30;99.90;;;;;;5049206;28;19932;-67
2021/05/17 05:00:03;;;;;;;;;;;10.40;99.90;;;;;;5047822;28;20023;-65
2021/05/17 05:02:28;;;;;;;;;;;10.40;1.00;;;;;;5048523;28;19988;-68
2021/05/17 05:04:54;;;;;;;;;;;10.30;1.00;;;;;;5048499;28;20110;-67
2021/05/17 05:07:23;;;;;;;;;;;10.40;1.00;;;;;;5048707;28;19913;-66
2021/05/17 05:09:48;;;;;;;;;;;10.40;1.00;;;;;;5047332;28;20448;-66
2021/05/17 05:12:14;;;;;;;;;;;10.50;1.00;;;;;;5048554;28;19912;-66
2021/05/17 05:14:39;;;;;;;;;;;10.60;1.00;;;;;;5037552;28;19909;-66
2021/05/17 05:17:05;;;;;;;;;;;10.80;1.00;;;;;;5028183;28;19916;-66
2021/05/17 05:19:30;;;;;;;;;;;10.80;1.00;;;;;;5027393;28;19913;-66
2021/05/17 05:21:57;;;;;;;;;;;10.90;99.90;;;;;;5031491;28;19916;-66
2021/05/17 05:24:23;;;;;;;;;;;11.00;99.90;;;;;;5047723;28;19908;-66
2021/05/17 05:26:58;;;;;;;;;;;10.90;1.00;;;;;;5048756;28;20271;-66
2021/05/17 05:29:31;;;;;;;;;;;11.00;1.00;;;;;;5046616;28;19916;-66
2021/05/17 05:32:19;;;;;;;;;;;11.10;1.00;;;;;;5048645;28;19931;-66
2021/05/17 05:34:45;;;;;;;;;;;11.20;1.00;;;;;;5047650;28;20340;-66
2021/05/17 05:37:11;;;;;;;;;;;11.20;99.90;;;;;;5048000;28;20389;-66
2021/05/17 05:39:36;;;;;;;;;;;11.30;69.50;;;;;;5046461;28;19913;-66
2021/05/17 05:42:02;;;;;;;;;;;12.00;1.00;;;;;;5047882;28;19971;-66
2021/05/17 05:44:27;;;;;;;;;;;12.80;1.00;;;;;;5047714;28;19912;-66
2021/05/17 05:46:53;;;;;;;;;;;13.00;1.00;;;;;;5048196;28;19909;-66
2021/05/17 05:49:18;;;;;;;;;;;12.90;1.00;;;;;;5046422;28;20289;-66
2021/05/17 05:51:44;;;;;;;;;;;12.80;1.00;;;;;;5047886;28;19955;-66
2021/05/17 05:54:10;;;;;;;;;;;12.50;1.00;;;;;;5047741;28;20289;-66
2021/05/17 05:56:36;;;;;;;;;;;12.40;1.00;;;;;;5047499;28;19909;-66
2021/05/17 05:59:02;;;;;;;;;;;12.20;1.00;;;;;;5048132;28;19920;-66
2021/05/17 06:01:27;;;;;;;;;;;12.00;1.00;;;;;;5046513;28;20286;-66
2021/05/17 06:03:53;;;;;;;;;;;12.10;99.90;;;;;;5047211;28;19970;-66
2021/05/17 06:06:18;;;;;;;;;;;12.20;99.90;;;;;;5048288;28;19924;-66
2021/05/17 06:08:44;;;;;;;;;;;12.20;99.90;;;;;;5047377;28;19916;-66
2021/05/17 06:11:11;;;;;;;;;;;12.20;99.90;;;;;;5046182;28;20378;-66
2021/05/17 06:13:37;;;;;;;;;;;12.10;99.90;;;;;;5045127;28;20129;-66
2021/05/17 06:16:07;;;;;;;;;;;12.00;99.90;;;;;;5040580;28;19916;-69
2021/05/17 06:18:34;;;;;;;;;;;11.90;99.90;;;;;;5047992;28;19909;-66
2021/05/17 06:21:01;;;;;;;;;;;12.00;99.90;;;;;;5045596;28;20613;-66
2021/05/17 06:23:27;;;;;;;;;;;12.30;98.60;;;;;;5047649;28;20012;-66
2021/05/17 06:25:54;;;;;;;;;;;12.80;1.00;;;;;;5054540;28;20095;-66
2021/05/17 06:28:21;;;;;;;;;;;13.10;1.00;;;;;;5052651;28;19909;-66
2021/05/17 06:30:56;;;;;;;;;;;12.90;1.00;;;;;;5046056;28;19995;-66
2021/05/17 06:33:22;;;;;;;;;;;12.50;1.00;;;;;;5046762;28;19917;-66
2021/05/17 06:35:53;;;;;;;;;;;13.00;1.00;;;;;;5047615;28;19924;-66
2021/05/17 06:38:19;;;;;;;;;;;13.40;99.90;;;;;;5046913;28;19996;-66
2021/05/17 06:40:44;;;;;;;;;;;13.50;99.90;;;;;;5046666;28;19913;-66
2021/05/17 06:43:10;;;;;;;;;;;13.50;99.90;;;;;;5046801;28;19909;-66
2021/05/17 06:45:35;;;;;;;;;;;13.50;7.40;;;;;;5046465;28;19962;-67
2021/05/17 06:48:02;;;;;;;;;;;13.70;29.40;;;;;;5046561;28;19931;-67
2021/05/17 06:50:28;;;;;;;;;;;15.70;1.00;;;;;;5048482;28;19936;-67
2021/05/17 06:52:54;;;;;;;;;;;18.40;99.90;;;;;;5045444;28;19963;-67
2021/05/17 06:55:22;;;;;;;;;;;20.90;99.90;;;;;;5049276;28;19963;-67
2021/05/17 07:00:32;;;;;;;;;;;23.30;99.90;;;;;;5049995;28;20218;-68
2021/05/17 07:03:02;;;;;;;;;;;22.90;99.90;;;;;;5051202;28;20595;-67
2021/05/17 07:05:28;;;;;;;;;;;21.50;99.90;;;;;;5052648;28;20074;-67
2021/05/17 07:13:12;;;;;;;;;;;21.30;99.90;;;;;;5046830;28;20039;-67
2021/05/17 07:15:38;;;;;;;;;;;22.10;99.90;;;;;;5048104;28;20003;-67
2021/05/17 07:18:04;;;;;;;;;;;21.60;99.90;;;;;;5045809;28;19913;-67
2021/05/17 07:25:54;;;;;;;;;;;19.00;99.90;;;;;;5043575;28;19936;-67
2021/05/17 07:28:20;;;;;;;;;;;18.00;99.90;;;;;;5039356;28;19913;-67
2021/05/17 07:30:47;;;;;;;;;;;17.60;99.90;;;;;;5040942;28;19971;-67
2021/05/17 07:33:12;;;;;;;;;;;16.90;99.90;;;;;;5040506;28;19928;-67
2021/05/17 07:35:38;;;;;;;;;;;16.90;99.90;;;;;;5044345;28;19920;-67
2021/05/17 07:38:04;;;;;;;;;;;17.30;99.90;;;;;;5039793;28;19974;-67
2021/05/17 07:40:30;;;;;;;;;;;18.20;99.90;;;;;;5041101;28;19917;-67
2021/05/17 07:42:55;;;;;;;;;;;18.60;99.90;;;;;;5030992;28;20204;-67
2021/05/17 07:45:21;;;;;;;;;;;18.00;99.90;;;;;;5044074;28;19927;-67
2021/05/17 07:47:46;;;;;;;;;;;17.50;99.90;;;;;;5040233;28;19921;-66
2021/05/17 07:50:12;;;;;;;;;;;16.90;99.90;;;;;;5040650;28;19970;-66
2021/05/17 07:52:38;;;;;;;;;;;16.60;99.90;;;;;;5042207;28;19931;-66
2021/05/17 07:55:04;;;;;;;;;;;16.30;99.90;;;;;;5032272;28;20289;-67
2021/05/17 07:57:29;;;;;;;;;;;16.00;99.90;;;;;;5044650;28;19913;-66
2021/05/17 07:59:55;;;;;;;;;;;15.60;99.90;;;;;;5043537;28;20580;-66
2021/05/17 08:02:21;;;;;;;;;;;15.50;99.90;;;;;;5039117;28;19970;-66
2021/05/17 08:04:50;;;;;;;;;;;15.40;99.90;;;;;;5043692;28;19921;-66
2021/05/17 08:07:16;;;;;;;;;;;15.00;99.90;;;;;;5044191;28;19924;-66
2021/05/17 08:09:41;;;;;;;;;;;14.70;99.90;;;;;;5044536;28;19932;-66
2021/05/17 08:12:07;;;;;;;;;;;14.80;99.90;;;;;;5032164;28;20252;-67
2021/05/17 08:14:32;;;;;;;;;;;14.80;99.90;;;;;;5043122;28;19912;-68
2021/05/17 08:16:58;;;;;;;;;;;15.20;99.90;;;;;;5048645;28;20004;-66
2021/05/17 08:19:23;;;;;;;;;;;16.00;99.90;;;;;;5039604;28;20374;-66
2021/05/17 08:21:49;;;;;;;;;;;16.30;99.90;;;;;;5043143;28;19963;-67
2021/05/17 08:24:14;;;;;;;;;;;16.20;99.90;;;;;;5039162;28;19917;-66
2021/05/17 08:26:41;;;;;;;;;;;16.10;99.90;;;;;;5033165;28;20347;-66
2021/05/17 08:29:07;;;;;;;;;;;16.00;99.90;;;;;;5043447;28;19924;-66
2021/05/17 08:31:33;;;;;;;;;;;15.90;99.90;;;;;;5045267;28;19913;-66
2021/05/17 08:33:59;;;;;;;;;;;15.80;99.90;;;;;;5040673;28;19921;-66
2021/05/17 08:36:25;;;;;;;;;;;15.90;99.90;;;;;;5034674;28;19913;-66
2021/05/17 08:38:50;;;;;;;;;;;16.80;99.90;;;;;;5040471;28;19913;-66
2021/05/17 08:41:16;;;;;;;;;;;17.80;99.90;;;;;;5032261;28;19917;-66
2021/05/17 08:43:42;;;;;;;;;;;19.10;99.90;;;;;;5039107;28;19917;-66
2021/05/17 08:46:11;;;;;;;;;;;19.80;99.90;;;;;;5039784;28;19992;-67
2021/05/17 08:48:47;;;;;;;;;;;20.00;99.90;;;;;;5048059;28;19955;-66
2021/05/17 08:51:16;;;;;;;;;;;19.80;99.90;;;;;;5046297;28;19920;-66
2021/05/17 08:53:44;;;;;;;;;;;19.20;99.90;;;;;;5035887;28;19964;-68
2021/05/17 08:56:10;;;;;;;;;;;18.10;99.90;;;;;;5029192;28;19982;-66
2021/05/17 08:58:35;;;;;;;;;;;17.20;99.90;;;;;;5043175;28;19913;-66
2021/05/17 09:01:03;;;;;;;;;;;16.70;99.90;;;;;;5036489;28;20027;-66
2021/05/17 09:03:29;;;;;;;;;;;16.10;99.90;;;;;;5038793;28;20013;-66
2021/05/17 09:05:54;;;;;;;;;;;15.80;99.90;;;;;;5037692;28;20023;-66
2021/05/17 09:08:23;;;;;;;;;;;15.20;99.90;;;;;;5027712;28;20041;-66
2021/05/17 09:10:49;;;;;;;;;;;15.20;99.90;;;;;;5039213;28;20011;-62
2021/05/17 09:13:15;;;;;;;;;;;15.50;99.90;;;;;;5044808;28;20015;-60
2021/05/17 09:15:42;;;;;;;;;;;16.00;99.90;;;;;;5032087;28;19915;-60
2021/05/17 09:18:13;;;;;;;;;;;16.70;99.90;;;;;;5035966;28;19917;-59
2021/05/17 09:20:40;;;;;;;;;;;17.50;99.90;;;;;;5034532;28;19913;-61
2021/05/17 09:23:10;;;;;;;;;;;19.60;99.90;;;;;;5045133;28;19917;-60
2021/05/17 09:25:37;;;;;;;;;;;21.40;99.90;;;;;;5039482;28;19927;-61
2021/05/17 09:28:03;;;;;;;;;;;23.90;99.90;;;;;;5037796;28;19927;-61
2021/05/17 09:30:48;;;;;;;;;;;25.40;99.90;;;;;;5028128;28;20257;-61
2021/05/17 09:33:18;;;;;;;;;;;26.30;99.90;;;;;;5046721;28;19934;-61
2021/05/17 09:35:44;;;;;;;;;;;27.20;99.90;;;;;;5040411;28;19972;-61
2021/05/17 09:38:19;;;;;;;;;;;26.80;99.90;;;;;;5040237;28;19921;-60
2021/05/17 09:40:47;;;;;;;;;;;25.80;99.90;;;;;;5050883;28;20016;-61
2021/05/17 09:43:15;;;;;;;;;;;25.90;99.90;;;;;;5052137;28;19916;-61
2021/05/17 09:45:45;;;;;;;;;;;27.10;99.90;;;;;;5028098;28;19913;-61
2021/05/17 09:48:12;;;;;;;;;;;28.50;99.90;;;;;;5041323;28;20330;-59
2021/05/17 09:50:55;;;;;;;;;;;29.10;99.90;;;;;;5035466;28;19909;-60
2021/05/17 09:53:25;;;;;;;;;;;30.40;99.90;;;;;;5041711;28;19960;-61
2021/05/17 09:55:51;;;;;;;;;;;30.20;99.90;;;;;;5027767;28;19920;-61
2021/05/17 09:58:35;;;;;;;;;;;30.10;99.90;;;;;;5032182;28;19917;-57
2021/05/17 10:01:05;;;;;;;;;;;29.00;99.90;;;;;;5027545;28;20327;-60
2021/05/17 10:03:50;;;;;;;;;;;28.60;99.90;;;;;;5041696;28;19928;-61
2021/05/17 10:06:22;;;;;;;;;;;28.70;99.90;;;;;;5042787;28;20007;-61
2021/05/17 10:08:48;;;;;;;;;;;29.60;99.90;;;;;;5032175;28;19913;-61
2021/05/17 10:11:14;;;;;;;;;;;30.30;99.90;;;;;;5030171;28;19913;-59
2021/05/17 10:13:40;;;;;;;;;;;30.80;99.90;;;;;;5040259;28;20142;-60
2021/05/17 10:16:07;;;;;;;;;;;30.10;99.90;;;;;;5039651;28;19920;-61
2021/05/17 10:18:33;;;;;;;;;;;28.90;99.90;;;;;;5034639;28;19913;-58
2021/05/17 10:20:59;;;;;;;;;;;27.90;99.90;;;;;;5041477;28;20370;-60
2021/05/17 10:23:26;;;;;;;;;;;27.10;99.90;;;;;;5040137;28;19965;-61
2021/05/17 10:25:52;;;;;;;;;;;26.00;99.90;;;;;;5043014;28;19928;-60
2021/05/17 10:28:24;;;;;;;;;;;25.00;99.90;;;;;;5037051;28;19964;-60
2021/05/17 10:30:50;;;;;;;;;;;23.90;98.50;;;;;;5033237;28;19961;-62
2021/05/17 10:33:20;;;;;;;;;;;22.90;98.90;;;;;;5043969;28;19916;-62
2021/05/17 10:35:47;;;;;;;;;;;21.80;96.20;;;;;;5039497;28;19928;-61
2021/05/17 10:38:13;;;;;;;;;;;20.50;92.90;;;;;;5043972;28;20001;-61
2021/05/17 10:40:41;;;;;;;;;;;20.00;93.40;;;;;;5039440;28;19924;-60
2021/05/17 10:43:17;;;;;;;;;;;19.80;96.60;;;;;;5039618;28;19928;-61
2021/05/17 10:48:21;;;;;;;;;;;18.60;96.00;;;;;;5044787;28;19912;-59
2021/05/17 10:50:48;;;;;;;;;;;18.00;79.30;;;;;;5042064;28;19920;-61
2021/05/17 10:53:32;;;;;;;;;;;17.70;61.00;;;;;;5048949;28;20231;-61
2021/05/17 10:55:58;;;;;;;;;;;18.30;62.10;;;;;;5041731;28;19971;-61
2021/05/17 11:00:22;;;;;;;;;;;19.40;63.10;;;;;;5047159;28;19913;-58
2021/05/17 11:01:29;;;;;;;;;;;19.30;63.40;;;;;;5046397;28;20364;-61
2021/05/17 11:04:13;;;;;;;;;;;19.60;60.60;;;;;;5048860;28;19966;-59
2021/05/17 11:06:39;;;;;;;;;;;20.00;58.10;;;;;;5040893;28;19939;-61
2021/05/17 11:09:13;;;;;;;;;;;21.00;61.40;;;;;;5050255;28;20324;-62
2021/05/17 11:11:38;;;;;;;;;;;22.00;65.80;;;;;;5033649;28;19913;-62
2021/05/17 11:14:20;;;;;;;;;;;22.40;67.10;;;;;;5042614;28;19928;-61
2021/05/17 11:16:58;;;;;;;;;;;21.90;63.20;;;;;;5046369;28;20012;-60
2021/05/17 11:19:24;;;;;;;;;;;20.40;55.80;;;;;;5033146;28;20010;-59
2021/05/17 11:21:59;;;;;;;;;;;19.40;55.50;;;;;;5037301;28;19917;-60
2021/05/17 11:24:25;;;;;;;;;;;18.70;56.40;;;;;;5046826;28;19982;-61
2021/05/17 11:26:51;;;;;;;;;;;18.40;58.10;;;;;;5046518;28;19955;-60
2021/05/17 11:29:30;;;;;;;;;;;18.50;65.10;;;;;;5054275;28;19916;-60
2021/05/17 11:32:10;;;;;;;;;;;18.80;70.70;;;;;;5057339;28;20007;-59
2021/05/17 11:34:55;;;;;;;;;;;19.60;76.30;;;;;;5032577;28;20008;-60
2021/05/17 11:37:21;;;;;;;;;;;20.60;79.50;;;;;;5037822;28;19972;-60
2021/05/17 11:39:47;;;;;;;;;;;21.50;86.10;;;;;;5044861;28;20328;-61
2021/05/17 11:42:13;;;;;;;;;;;22.00;84.50;;;;;;5057003;28;19961;-60
2021/05/17 11:44:57;;;;;;;;;;;21.30;75.20;;;;;;5052560;28;19970;-60
2021/05/17 11:47:27;;;;;;;;;;;19.70;64.70;;;;;;5055592;28;19988;-60
2021/05/17 11:49:53;;;;;;;;;;;17.90;62.80;;;;;;5052459;28;20895;-58
2021/05/17 11:52:23;;;;;;;;;;;17.30;70.20;;;;;;5046831;28;19917;-60
2021/05/17 11:54:52;;;;;;;;;;;17.20;74.70;;;;;;5053227;28;19916;-60
2021/05/17 11:57:19;;;;;;;;;;;16.60;74.60;;;;;;5050065;28;19914;-60
2021/05/17 11:59:49;;;;;;;;;;;16.10;82.10;;;;;;5049530;28;19924;-61
2021/05/17 12:02:14;;;;;;;;;;;15.80;96.30;;;;;;5054536;28;19973;-57
2021/05/17 12:04:41;;;;;;;;;;;15.80;99.90;;;;;;5054912;28;19916;-59
2021/05/17 12:07:07;;;;;;;;;;;15.50;99.90;;;;;;5054105;28;19977;-59
2021/05/17 12:09:41;;;;;;;;;;;15.40;99.90;;;;;;5048908;28;20017;-59
2021/05/17 12:12:09;;;;;;;;;;;15.50;99.90;;;;;;5057826;28;19974;-60
2021/05/17 12:14:36;;;;;;;;;;;16.00;99.90;;;;;;5052943;28;19920;-60
2021/05/17 12:17:05;;;;;;;;;;;16.80;99.90;;;;;;5052209;28;20284;-60
2021/05/17 12:19:31;;;;;;;;;;;17.40;99.90;;;;;;5054034;28;19923;-59
2021/05/17 12:21:58;;;;;;;;;;;17.80;99.90;;;;;;5040446;28;19917;-60
2021/05/17 12:24:24;;;;;;;;;;;18.00;99.90;;;;;;5043313;28;19913;-58
2021/05/17 12:26:54;;;;;;;;;;;17.00;99.90;;;;;;5045185;28;19913;-57
2021/05/17 12:29:20;;;;;;;;;;;16.50;99.90;;;;;;5036251;28;19916;-58
2021/05/17 12:31:46;;;;;;;;;;;16.00;99.90;;;;;;5041339;28;19920;-59
2021/05/17 12:34:12;;;;;;;;;;;15.90;99.90;;;;;;5037708;28;19959;-59
2021/05/17 12:36:38;;;;;;;;;;;15.70;99.90;;;;;;5043000;28;20325;-60
2021/05/17 12:39:04;;;;;;;;;;;15.90;99.90;;;;;;5035958;28;19916;-59
2021/05/17 12:41:37;;;;;;;;;;;16.40;99.90;;;;;;5034928;28;20388;-58
2021/05/17 12:44:03;;;;;;;;;;;16.60;99.90;;;;;;5040574;28;19917;-58
2021/05/17 12:46:29;;;;;;;;;;;16.80;99.90;;;;;;5045757;28;19921;-59
2021/05/17 12:48:56;;;;;;;;;;;17.00;99.90;;;;;;5039179;28;19955;-59
2021/05/17 12:51:26;;;;;;;;;;;17.40;99.90;;;;;;5046000;28;19916;-58
2021/05/17 12:54:09;;;;;;;;;;;17.20;99.90;;;;;;5043631;28;19916;-59
2021/05/17 12:56:35;;;;;;;;;;;17.10;99.90;;;;;;5036971;28;19920;-60
2021/05/17 12:59:11;;;;;;;;;;;17.10;99.90;;;;;;5044571;28;20167;-54
2021/05/17 13:01:38;;;;;;;;;;;16.90;99.90;;;;;;5042510;28;20008;-60
2021/05/17 13:04:04;;;;;;;;;;;16.90;99.90;;;;;;5046252;28;20008;-56
2021/05/17 13:06:30;;;;;;;;;;;16.70;99.90;;;;;;5036237;28;19937;-57
2021/05/17 13:09:07;;;;;;;;;;;16.10;99.90;;;;;;5064366;28;20362;-54
2021/05/17 13:11:36;;;;;;;;;;;15.50;99.90;;;;;;5063275;28;19944;-57
2021/05/17 13:14:06;;;;;;;;;;;15.30;99.90;;;;;;5063964;28;20377;-60
2021/05/17 13:16:34;;;;;;;;;;;15.30;99.90;;;;;;5052244;28;20080;-60
2021/05/17 13:19:35;;;;;;;;;;;15.60;99.90;;;;;;5031683;28;20267;-56
2021/05/17 13:25:22;;;;;;;;;;;16.10;99.90;;;;;;5040200;28;19917;-61
2021/05/17 13:30:42;;;;;;;;;;;16.30;99.90;;;;;;5031511;28;19919;-61
2021/05/17 13:33:08;;;;;;;;;;;16.40;99.90;;;;;;5042450;28;20381;-59
2021/05/17 13:35:33;;;;;;;;;;;16.40;99.90;;;;;;5038008;28;20000;-61
2021/05/17 13:38:00;;;;;;;;;;;16.20;99.90;;;;;;5035572;28;20358;-61
2021/05/17 13:40:25;;;;;;;;;;;16.10;99.90;;;;;;5030607;28;20365;-60
2021/05/17 13:42:51;;;;;;;;;;;16.10;99.90;;;;;;5027847;28;19917;-59
2021/05/17 13:45:17;;;;;;;;;;;16.10;99.90;;;;;;5038430;28;20374;-60
2021/05/17 13:47:43;;;;;;;;;;;15.90;99.90;;;;;;5035784;28;19999;-60
2021/05/17 13:50:10;;;;;;;;;;;15.50;99.90;;;;;;5032422;28;19917;-59
2021/05/17 13:52:36;;;;;;;;;;;15.40;99.90;;;;;;5042115;28;20839;-61
2021/05/17 13:55:03;;;;;;;;;;;15.60;99.90;;;;;;5028666;28;19996;-60
2021/05/17 13:57:28;;;;;;;;;;;15.90;99.90;;;;;;5032141;28;20028;-61
2021/05/17 13:59:54;;;;;;;;;;;16.20;99.90;;;;;;5030597;28;20105;-59
2021/05/17 14:02:19;;;;;;;;;;;16.20;99.90;;;;;;5033320;28;20693;-60
2021/05/17 14:04:45;;;;;;;;;;;15.90;99.90;;;;;;5036633;28;20003;-61
2021/05/17 14:07:11;;;;;;;;;;;15.80;99.90;;;;;;5033419;28;19920;-60
2021/05/17 14:09:36;;;;;;;;;;;15.70;99.90;;;;;;5050197;28;19972;-60
2021/05/17 14:12:02;;;;;;;;;;;15.30;99.90;;;;;;5051753;28;20012;-60
2021/05/17 14:14:27;;;;;;;;;;;15.20;99.90;;;;;;5048404;28;20011;-61
2021/05/17 14:16:57;;;;;;;;;;;15.30;99.90;;;;;;5062587;28;20665;-61
2021/05/17 14:19:23;;;;;;;;;;;15.40;99.90;;;;;;5049056;28;19952;-62
2021/05/17 14:21:48;;;;;;;;;;;15.60;99.90;;;;;;5040214;28;19927;-62
2021/05/17 14:24:15;;;;;;;;;;;15.70;99.90;;;;;;5043128;28;19917;-62
2021/05/17 14:26:40;;;;;;;;;;;15.40;99.90;;;;;;5044747;28;20402;-61
2021/05/17 14:29:06;;;;;;;;;;;15.30;99.90;;;;;;5045286;28;19967;-62
2021/05/17 14:31:32;;;;;;;;;;;15.20;99.90;;;;;;5046727;28;20326;-60
2021/05/17 14:34:01;;;;;;;;;;;15.00;99.90;;;;;;5043634;28;19919;-62
2021/05/17 14:36:27;;;;;;;;;;;15.00;99.90;;;;;;5046362;28;19913;-62
2021/05/17 14:38:52;;;;;;;;;;;15.00;99.90;;;;;;5047625;28;19936;-62
2021/05/17 14:41:18;;;;;;;;;;;15.10;99.90;;;;;;5032694;28;19942;-61
2021/05/17 14:43:43;;;;;;;;;;;15.20;99.90;;;;;;5040636;28;19996;-61
2021/05/17 14:46:09;;;;;;;;;;;15.40;99.90;;;;;;5047515;28;19921;-61
2021/05/17 14:48:34;;;;;;;;;;;15.70;99.90;;;;;;5048817;28;19927;-62
2021/05/17 14:51:00;;;;;;;;;;;16.00;99.90;;;;;;5045990;28;20226;-61
2021/05/17 14:53:25;;;;;;;;;;;16.30;99.90;;;;;;5037850;28;19917;-59
2021/05/17 14:55:51;;;;;;;;;;;16.60;99.90;;;;;;5041796;28;20271;-62